createdAt,value
2018-08-09T00:01:20.611Z,8.90
2018-08-09T00:05:24.002Z,8.47
2018-08-09T00:09:27.340Z,9.57
2018-08-09T00:13:30.671Z,8.97
2018-08-09T00:17:34.011Z,9.03
2018-08-09T00:21:37.363Z,9.30
2018-08-09T00:25:40.780Z,9.70
2018-08-09T00:29:44.717Z,8.10
2018-08-09T00:33:48.043Z,8.47
2018-08-09T00:37:53.023Z,9.27
2018-08-09T00:41:56.360Z,10.20
2018-08-09T00:45:59.696Z,8.90
2018-08-09T00:50:03.087Z,7.50
2018-08-09T00:54:07.112Z,8.07
2018-08-09T00:58:10.430Z,9.93
2018-08-09T01:02:13.795Z,10.07
2018-08-09T01:06:17.145Z,8.97
2018-08-09T01:10:20.524Z,9.10
2018-08-09T01:14:23.864Z,8.80
2018-08-09T01:18:27.202Z,10.07
2018-08-09T01:22:30.551Z,9.17
2018-08-09T01:26:33.903Z,10.37
2018-08-09T01:30:37.632Z,9.73
2018-08-09T01:34:40.977Z,10.27
2018-08-09T01:38:44.322Z,11.07
2018-08-09T01:42:58.764Z,11.30
2018-08-09T01:47:02.096Z,10.67
2018-08-09T01:51:05.428Z,9.60
2018-08-09T01:55:08.767Z,10.00
2018-08-09T01:59:12.082Z,10.67
2018-08-09T02:03:16.968Z,10.53
2018-08-09T02:07:20.843Z,10.33
2018-08-09T02:11:24.186Z,10.10
2018-08-09T02:15:27.547Z,10.40
2018-08-09T02:19:31.206Z,9.53
2018-08-09T02:23:34.943Z,9.30
2018-08-09T02:27:38.299Z,10.63
2018-08-09T02:31:41.666Z,9.60
2018-08-09T02:35:45.249Z,9.53
2018-08-09T02:39:48.589Z,10.53
2018-08-09T02:43:51.942Z,10.20
2018-08-09T02:47:55.289Z,9.73
2018-08-09T02:51:58.628Z,9.73
2018-08-09T02:56:01.958Z,10.30
2018-08-09T03:00:05.944Z,11.00
2018-08-09T03:04:09.297Z,10.00
2018-08-09T03:08:12.646Z,11.67
2018-08-09T03:12:15.988Z,11.57
2018-08-09T03:16:19.322Z,11.90
2018-08-09T03:20:22.639Z,11.13
2018-08-09T03:24:26.032Z,12.17
2018-08-09T03:28:30.471Z,11.97
2018-08-09T03:32:33.861Z,13.10
2018-08-09T03:36:38.877Z,11.53
2018-08-09T03:40:42.206Z,12.87
2018-08-09T03:44:45.534Z,13.37
2018-08-09T03:48:48.876Z,14.40
2018-08-09T03:52:52.202Z,13.57
2018-08-09T03:56:55.527Z,13.03
2018-08-09T04:00:58.903Z,12.37
2018-08-09T04:05:02.223Z,11.30
2018-08-09T04:09:08.485Z,12.47
2018-08-09T04:13:11.823Z,13.70
2018-08-09T04:17:19.944Z,15.40
2018-08-09T04:21:23.287Z,15.60
2018-08-09T04:25:26.619Z,16.30
2018-08-09T04:29:29.946Z,16.00
2018-08-09T04:33:34.643Z,16.80
2018-08-09T04:37:38.028Z,15.13
2018-08-09T04:41:41.356Z,15.80
2018-08-09T04:45:44.674Z,16.07
2018-08-09T04:49:48.002Z,16.47
2018-08-09T04:53:51.328Z,17.00
2018-08-09T04:57:56.061Z,16.67
2018-08-09T05:01:59.398Z,17.93
2018-08-09T05:06:03.220Z,16.37
2018-08-09T05:10:09.396Z,16.13
2018-08-09T05:14:12.747Z,16.60
2018-08-09T05:18:16.070Z,16.83
2018-08-09T05:22:19.404Z,15.37
2018-08-09T05:26:22.755Z,16.83
2018-08-09T05:30:26.143Z,16.67
2018-08-09T05:34:29.489Z,15.73
2018-08-09T05:38:32.848Z,15.93
2018-08-09T05:42:36.906Z,16.10
2018-08-09T05:46:40.214Z,15.83
2018-08-09T05:50:43.571Z,16.80
2018-08-09T05:54:46.900Z,15.03
2018-08-09T05:58:51.062Z,15.50
2018-08-09T06:02:54.428Z,17.43
2018-08-09T06:06:57.776Z,16.37
2018-08-09T06:11:01.119Z,18.27
2018-08-09T06:15:04.804Z,18.80
2018-08-09T06:19:08.358Z,19.13
2018-08-09T06:23:11.749Z,17.80
2018-08-09T06:27:16.035Z,16.67
2018-08-09T06:31:23.461Z,17.90
2018-08-09T06:35:26.819Z,18.30
2018-08-09T06:39:30.181Z,16.93
2018-08-09T06:43:33.522Z,18.77
2018-08-09T06:47:36.853Z,15.90
2018-08-09T06:51:40.211Z,17.17
2018-08-09T06:55:43.539Z,14.80
2018-08-09T06:59:46.906Z,14.40
2018-08-09T07:03:50.266Z,15.23
2018-08-09T07:07:53.615Z,13.57
2018-08-09T07:11:56.935Z,12.53
2018-08-09T07:16:00.262Z,12.20
2018-08-09T07:20:03.742Z,11.13
2018-08-09T07:24:07.085Z,11.93
2018-08-09T07:28:10.447Z,11.63
2018-08-09T07:32:13.791Z,11.03
2018-08-09T07:36:17.114Z,10.97
2018-08-09T07:40:20.484Z,11.97
2018-08-09T07:44:23.815Z,11.00
2018-08-09T07:48:27.179Z,8.87
2018-08-09T07:52:30.550Z,9.83
2018-08-09T07:56:33.863Z,9.60
2018-08-09T08:00:37.233Z,9.10
2018-08-09T08:04:40.567Z,8.97
2018-08-09T08:08:43.883Z,8.57
2018-08-09T08:12:47.206Z,9.73
2018-08-09T08:16:50.613Z,8.37
2018-08-09T08:20:53.936Z,7.83
2018-08-09T08:25:00.290Z,9.10
2018-08-09T08:29:03.663Z,9.17
2018-08-09T08:33:06.994Z,8.27
2018-08-09T08:37:10.384Z,9.03
2018-08-09T08:41:13.819Z,8.67
2018-08-09T08:45:17.149Z,9.57
2018-08-09T08:49:20.471Z,8.80
2018-08-09T08:53:23.780Z,9.80
2018-08-09T08:57:27.116Z,15.03
2018-08-09T09:01:30.490Z,13.90
2018-08-09T09:05:33.874Z,15.47
2018-08-09T09:09:37.215Z,15.90
2018-08-09T09:13:40.534Z,15.63
2018-08-09T09:17:44.583Z,16.37
2018-08-09T09:21:47.968Z,18.03
2018-08-09T09:25:51.307Z,19.37
2018-08-09T09:29:54.628Z,20.43
2018-08-09T09:33:57.984Z,19.97
2018-08-09T09:38:01.340Z,22.03
2018-08-09T09:42:04.678Z,22.47
2018-08-09T09:46:08.031Z,22.47
2018-08-09T09:50:12.021Z,24.80
2018-08-09T09:54:15.334Z,26.07
2018-08-09T09:58:18.671Z,26.67
2018-08-09T10:02:22.141Z,26.03
2018-08-09T10:06:25.505Z,28.00
2018-08-09T10:10:28.856Z,28.27
2018-08-09T10:14:32.219Z,26.87
2018-08-09T10:18:35.570Z,23.97
2018-08-09T10:22:38.962Z,24.03
2018-08-09T10:26:42.334Z,24.03
2018-08-09T10:30:45.803Z,22.93
2018-08-09T10:34:49.152Z,21.00
2018-08-09T10:38:52.526Z,20.00
2018-08-09T10:42:55.892Z,17.70
2018-08-09T10:46:59.227Z,19.00
2018-08-09T10:51:03.141Z,17.32
2018-08-09T10:55:06.844Z,15.68
2018-08-09T10:59:10.158Z,14.30
2018-08-09T11:03:13.563Z,14.10
2018-08-09T11:07:16.890Z,13.30
2018-08-09T11:11:20.311Z,13.57
2018-08-09T11:15:23.648Z,14.47
2018-08-09T11:19:26.986Z,13.37
2018-08-09T11:23:30.852Z,13.13
2018-08-09T11:27:34.190Z,14.00
2018-08-09T11:31:37.249Z,12.98
2018-08-09T11:35:40.602Z,12.25
2018-08-09T11:39:43.979Z,12.87
2018-08-09T11:43:47.280Z,13.32
2018-08-09T11:47:50.617Z,11.88
2018-08-09T11:51:53.939Z,12.58
2018-08-09T11:55:57.271Z,12.93
2018-08-09T12:00:00.720Z,11.90
2018-08-09T12:04:04.095Z,11.43
2018-08-09T12:08:07.451Z,11.45
2018-08-09T12:12:10.849Z,11.88
2018-08-09T12:16:14.183Z,11.08
2018-08-09T12:20:17.507Z,10.85
2018-08-09T12:24:20.916Z,9.35
2018-08-09T12:28:24.345Z,7.95
2018-08-09T12:32:27.699Z,8.43
2018-08-09T12:36:31.430Z,8.00
2018-08-09T12:40:34.786Z,7.72
2018-08-09T12:44:38.186Z,7.65
2018-08-09T12:48:41.547Z,7.80
2018-08-09T12:52:45.154Z,7.37
2018-08-09T12:56:48.525Z,7.22
2018-08-09T13:00:52.216Z,7.40
2018-08-09T13:04:55.552Z,7.25
2018-08-09T13:08:58.943Z,7.60
2018-08-09T13:13:02.300Z,7.05
2018-08-09T13:17:05.635Z,7.20
2018-08-09T13:21:09.011Z,6.95
2018-08-09T13:25:12.422Z,7.03
2018-08-09T13:29:15.746Z,7.42
2018-08-09T13:33:19.119Z,7.25
2018-08-09T13:37:22.492Z,8.30
2018-08-09T13:41:25.875Z,7.58
2018-08-09T13:45:29.219Z,6.70
2018-08-09T13:49:32.559Z,7.97
2018-08-09T13:53:35.939Z,7.03
2018-08-09T13:57:39.322Z,7.35
2018-08-09T14:01:42.666Z,7.53
2018-08-09T14:05:46.021Z,7.00
2018-08-09T14:09:49.368Z,7.33
2018-08-09T14:13:52.695Z,7.30
2018-08-09T14:17:56.039Z,7.80
2018-08-09T14:21:59.693Z,8.43
2018-08-09T14:26:03.036Z,6.90
2018-08-09T14:30:07.731Z,7.40
2018-08-09T14:34:11.083Z,6.95
2018-08-09T14:38:14.403Z,7.45
2018-08-09T14:42:17.748Z,7.30
2018-08-09T14:46:21.153Z,7.53
2018-08-09T14:50:24.498Z,7.22
2018-08-09T14:54:27.839Z,7.03
2018-08-09T14:58:31.212Z,7.60
2018-08-09T15:02:34.550Z,7.12
2018-08-09T15:06:37.875Z,7.50
2018-08-09T15:10:41.911Z,6.85
2018-08-09T15:14:45.376Z,6.87
2018-08-09T15:18:48.872Z,6.60
2018-08-09T15:22:52.224Z,7.20
2018-08-09T15:26:55.562Z,6.35
2018-08-09T15:30:58.916Z,5.83
2018-08-09T15:35:02.278Z,5.42
2018-08-09T15:39:09.610Z,5.67
2018-08-09T15:43:12.935Z,3.72
2018-08-09T15:47:16.304Z,4.92
2018-08-09T15:51:19.671Z,3.62
2018-08-09T15:55:22.996Z,3.70
2018-08-09T15:59:26.326Z,3.52
2018-08-09T16:03:29.650Z,3.50
2018-08-09T16:07:33.029Z,3.77
2018-08-09T16:11:36.438Z,3.62
2018-08-09T16:15:39.848Z,3.67
2018-08-09T16:19:43.250Z,3.80
2018-08-09T16:23:46.622Z,3.43
2018-08-09T16:27:50.428Z,3.40
2018-08-09T16:31:53.868Z,3.20
2018-08-09T16:35:57.227Z,3.03
2018-08-09T16:40:00.614Z,3.93
2018-08-09T16:44:03.979Z,3.83
2018-08-09T16:48:07.415Z,3.53
2018-08-09T16:52:10.764Z,3.90
2018-08-09T16:56:14.120Z,3.53
2018-08-09T17:00:20.067Z,3.73
2018-08-09T17:04:23.420Z,3.50
2018-08-09T17:08:26.762Z,3.20
2018-08-09T17:12:30.124Z,3.00
2018-08-09T17:16:33.506Z,3.53
2018-08-09T17:20:36.881Z,3.50
2018-08-09T17:24:40.276Z,3.60
2018-08-09T17:28:43.634Z,3.50
2018-08-09T17:32:46.999Z,3.20
2018-08-09T17:36:50.348Z,3.07
2018-08-09T17:40:53.714Z,3.63
2018-08-09T17:44:57.073Z,2.90
2018-08-09T17:49:00.396Z,3.33
2018-08-09T17:53:04.649Z,3.20
2018-08-09T17:57:08.014Z,3.10
2018-08-09T18:01:11.360Z,3.20
2018-08-09T18:05:14.746Z,2.63
2018-08-09T18:09:18.068Z,2.73
2018-08-09T18:13:21.413Z,2.73
2018-08-09T18:17:24.758Z,2.87
2018-08-09T18:21:28.104Z,2.47
2018-08-09T18:25:31.469Z,3.20
2018-08-09T18:29:34.842Z,2.57
2018-08-09T18:33:38.183Z,2.90
2018-08-09T18:37:42.607Z,3.33
2018-08-09T18:41:45.993Z,2.80
2018-08-09T18:45:49.380Z,3.03
2018-08-09T18:49:52.743Z,3.23
2018-08-09T18:53:56.159Z,2.90
2018-08-09T18:57:59.511Z,2.80
2018-08-09T19:02:02.879Z,3.00
2018-08-09T19:06:06.311Z,3.33
2018-08-09T19:10:11.887Z,2.70
2018-08-09T19:14:15.256Z,2.93
2018-08-09T19:18:18.590Z,3.23
2018-08-09T19:22:21.976Z,2.90
2018-08-09T19:26:25.305Z,3.23
2018-08-09T19:30:29.716Z,2.70
2018-08-09T19:34:33.079Z,3.30
2018-08-09T19:38:43.241Z,2.93
2018-08-09T19:42:46.571Z,2.93
2018-08-09T19:46:49.932Z,2.60
2018-08-09T19:50:53.374Z,3.07
2018-08-09T19:54:56.703Z,2.90
2018-08-09T19:59:00.071Z,3.27
2018-08-09T20:03:03.439Z,2.80
2018-08-09T20:07:06.875Z,2.87
2018-08-09T20:11:10.238Z,2.80
2018-08-09T20:15:16.098Z,3.27
2018-08-09T20:19:19.608Z,2.70
2018-08-09T20:23:22.980Z,2.90
2018-08-09T20:27:26.307Z,2.83
2018-08-09T20:31:29.671Z,3.07
2018-08-09T20:35:33.048Z,2.97
2018-08-09T20:39:36.419Z,2.80
2018-08-09T20:43:39.782Z,2.77
2018-08-09T20:47:43.176Z,2.60
2018-08-09T20:51:46.644Z,2.50
2018-08-09T20:55:50.000Z,2.60
2018-08-09T20:59:53.388Z,2.70
2018-08-09T21:03:56.766Z,2.70
2018-08-09T21:08:00.234Z,2.20
2018-08-09T21:12:03.610Z,2.20
2018-08-09T21:16:06.971Z,2.30
2018-08-09T21:20:10.567Z,2.40
2018-08-09T21:24:13.916Z,2.73
2018-08-09T21:28:17.267Z,3.43
2018-08-09T21:32:20.624Z,3.53
2018-08-09T21:36:23.975Z,3.60
2018-08-09T21:40:27.331Z,3.27
2018-08-09T21:44:30.725Z,2.90
2018-08-09T21:48:34.047Z,3.10
2018-08-09T21:52:37.390Z,3.07
2018-08-09T21:56:40.773Z,2.73
2018-08-09T22:00:53.637Z,2.80
2018-08-09T22:05:02.272Z,2.70
2018-08-09T22:10:15.047Z,2.20
2018-08-09T22:14:23.860Z,2.60
2018-08-09T22:18:32.418Z,1.90
2018-08-09T22:22:37.379Z,1.97
2018-08-09T22:26:40.751Z,2.00
2018-08-09T22:30:44.184Z,2.27
2018-08-09T22:34:49.348Z,2.23
2018-08-09T22:38:52.683Z,2.40
2018-08-09T22:42:56.012Z,2.40
2018-08-09T22:46:59.366Z,2.20
2018-08-09T22:51:03.304Z,2.13
2018-08-09T22:55:06.657Z,2.13
2018-08-09T22:59:10.279Z,1.90
2018-08-09T23:03:14.511Z,1.97
2018-08-09T23:07:17.867Z,2.43
2018-08-09T23:11:21.077Z,2.27
2018-08-09T23:15:24.192Z,2.57
2018-08-09T23:19:27.301Z,1.83
2018-08-09T23:23:30.405Z,1.80
2018-08-09T23:27:33.515Z,1.67
2018-08-09T23:31:36.627Z,1.60
2018-08-09T23:35:39.722Z,1.50
2018-08-09T23:39:42.901Z,1.40
2018-08-09T23:43:46.077Z,1.50
2018-08-09T23:47:49.200Z,1.60
2018-08-09T23:51:52.314Z,1.50
2018-08-09T23:55:55.406Z,1.50
2018-08-09T23:59:58.535Z,1.50
